ADDS METAR Data INFO
IDs: Format: Raw Decoded Include TAF

Data at: 1153 UTC 25 Jun 2018

K82V 251135Z AUTO 00000KT 10SM BKN110 11/10 A3011 RMK AO2
K82V 251115Z AUTO 00000KT 10SM SCT080 SCT100 SCT120 10/10 A3011 RMK AO2
K82V 251055Z AUTO 00000KT 10SM SCT070 BKN080 BKN120 11/10 A3011 RMK AO2
K82V 251035Z AUTO 26004KT 10SM BKN080 OVC090 11/11 A3011 RMK AO2
K82V 251015Z AUTO 27004KT 10SM OVC080 11/11 A3011 RMK AO2
K82V 250955Z AUTO 27004KT 10SM BKN080 OVC090 11/11 A3012 RMK AO2
K82V 250935Z AUTO 28003KT 10SM SCT075 OVC095 11/11 A3011 RMK AO2
K82V 250915Z AUTO 28005KT 10SM SCT095 11/10 A3012 RMK AO2
K82V 250855Z AUTO 27005KT 10SM SCT110 11/10 A3012 RMK AO2
K82V 250835Z AUTO 26003KT 10SM SCT085 OVC110 11/10 A3012 RMK AO2
K82V 250815Z AUTO 00000KT 10SM BKN100 OVC120 11/10 A3011 RMK AO2
K82V 250755Z AUTO 30004KT 10SM BKN110 11/10 A3012 RMK AO2
K82V 250735Z AUTO 34005KT 10SM SCT110 11/10 A3012 RMK AO2
K82V 250715Z AUTO 34009KT 10SM SCT120 11/09 A3011 RMK AO2
K82V 250655Z AUTO 34007KT 10SM CLR 11/08 A3011 RMK AO2
K82V 250635Z AUTO 33007KT 10SM CLR 11/08 A3010 RMK AO2
K82V 250615Z AUTO 33008KT 10SM BKN110 12/08 A3011 RMK AO2
K82V 250555Z AUTO 32008KT 10SM BKN120 12/09 A3012 RMK AO2
K82V 250535Z AUTO 31007KT 10SM OVC110 12/09 A3012 RMK AO2
K82V 250515Z AUTO 31006KT 10SM OVC100 12/09 A3014 RMK AO2
K82V 250455Z AUTO 30005KT 10SM OVC090 12/09 A3016 RMK AO2
K82V 250435Z AUTO 33004KT 10SM SCT080 BKN090 BKN110 13/08 A3018 RMK AO2
K82V 250415Z AUTO 33005KT 10SM BKN080 OVC090 13/09 A3019 RMK AO2
K82V 250355Z AUTO 33005KT 10SM OVC090 13/08 A3018 RMK AO2
K82V 250335Z AUTO 33007KT 10SM SCT080 OVC090 13/08 A3018 RMK AO2
K82V 250315Z AUTO 33007KT 10SM BKN080 BKN090 13/08 A3016 RMK AO2
K82V 250255Z AUTO 32007KT 10SM SCT065 SCT080 12/08 A3015 RMK AO2
K82V 250235Z AUTO 33007KT 10SM SCT042 SCT065 13/07 A3012 RMK AO2
K82V 250215Z AUTO 32010KT 10SM BKN042 BKN050 BKN120 15/07 A3012 RMK AO2
K82V 250155Z AUTO 35009KT 10SM SCT042 SCT060 BKN120 16/08 A3012 RMK AO2
K82V 250135Z AUTO 35011KT 10SM BKN050 OVC070 16/07 A3012 RMK AO2
K82V 250115Z AUTO 35013G16KT 10SM SCT060 BKN070 OVC080 16/07 A3012 RMK AO2
K82V 250055Z AUTO 35014G18KT 10SM BKN070 BKN080 16/07 A3011 RMK AO2
K82V 250035Z AUTO 34012G16KT 10SM SCT049 SCT075 17/08 A3011 RMK AO2
K82V 250015Z AUTO 35011G17KT 10SM SCT049 17/07 A3010 RMK AO2
K82V 242355Z AUTO 34010KT 10SM SCT041 SCT047 17/08 A3011 RMK AO2 LTG DSNT SE
K82V 242335Z AUTO 01009KT 10SM SCT038 SCT045 16/09 A3010 RMK AO2
K82V 242315Z AUTO 36009KT 10SM CLR 16/10 A3010 RMK AO2
K82V 242255Z AUTO 33011G15KT 10SM CLR 15/09 A3010 RMK AO2
K82V 242235Z AUTO 33007KT 10SM CLR 14/11 A3009 RMK AO2
K82V 242215Z AUTO 33011KT 10SM SCT120 13/11 A3011 RMK AO2
K82V 242155Z AUTO 31010KT 10SM SCT060 SCT080 BKN120 13/11 A3011 RMK AO2
K82V 242135Z AUTO 29004KT 10SM -RA SCT024 SCT041 OVC060 12/09 A3011 RMK AO2 LTG DSNT NE AND E
K82V 242115Z AUTO 28003KT 5SM -RA SCT012 BKN039 OVC080 11/08 A3012 RMK AO2 LTG DSNT ALQS
K82V 242055Z AUTO 32010G15KT 10SM SCT036 SCT060 BKN080 17/08 A3011 RMK AO2 LTG DSNT W
K82V 242035Z AUTO 35009G14KT 10SM TS SCT033 17/09 A3009 RMK AO2 LTG DSNT ALQS
K82V 242015Z AUTO 36008KT 10SM VCTS CLR 17/09 A3007 RMK AO2 LTG DSNT ALQS
K82V 241955Z AUTO 36006KT 10SM VCTS SCT090 SCT110 16/09 A3009 RMK AO2 LTG DSNT SE W AND NW
K82V 241935Z AUTO 35007KT 10SM VCTS BKN085 OVC110 16/10 A3010 RMK AO2 LTG DSNT ALQS
K82V 241915Z AUTO 36010KT 10SM VCTS BKN110 15/10 A3011 RMK AO2 LTG DSNT E S AND NW
K82V 241855Z AUTO 36007KT 10SM VCTS SCT035 15/10 A3011 RMK AO2 LTG DSNT ALQS
K82V 241835Z AUTO 36008KT 10SM SCT020 SCT026 SCT035 16/10 A3012 RMK AO2 LTG DSNT SE AND W
K82V 241815Z AUTO 01009G14KT 10SM SCT020 BKN085 BKN110 16/11 A3011 RMK AO2 LTG DSNT W THRU NE
K82V 241755Z AUTO 02008KT 10SM -RA SCT026 BKN070 OVC090 14/12 A3011 RMK AO2 LTG DSNT W THRU E
K82V 241735Z AUTO 35004KT 10SM VCTSDZ SCT033 BKN050 OVC080 13/11 A3012 RMK AO2 LTG DSNT SW AND W
K82V 241715Z AUTO 33010G14KT 10SM VCTS SCT048 OVC080 13/11 A3011 RMK AO2 LTG DSNT ALQS
K82V 241655Z AUTO 33011KT 10SM TS SCT015 BKN048 OVC085 13/11 A3011 RMK AO2 LTG DSNT ALQS
K82V 241635Z AUTO 33009KT 10SM VCTS SCT016 OVC050 12/12 A3011 RMK AO2 LTG DSNT NE E AND W
K82V 241615Z AUTO 33006KT 10SM -TSRA SCT016 BKN032 OVC060 12/11 A3010 RMK AO2 LTG DSNT NE
K82V 241555Z AUTO 30008G14KT 3SM +RA SCT016 BKN030 OVC080 12/11 A3010 RMK AO2 LTG DSNT W AND NW
K82V 241535Z AUTO 33009KT 10SM -VCTSRA SCT055 BKN080 BKN090 12/10 A3008 RMK AO2 LTG DSNT SW
K82V 241515Z AUTO 34011KT 10SM VCTS SCT015 BKN032 BKN055 13/10 A3007 RMK AO2 LTG DSNT NW
K82V 241455Z AUTO 34009KT 10SM SCT015 BKN030 OVC050 14/10 A3007 RMK AO2 LTG DSNT SW THRU NW
K82V 241435Z AUTO 31008KT 10SM SCT030 SCT040 OVC050 13/10 A3007 RMK AO2 LTG DSNT W AND NW
K82V 241415Z AUTO 29009KT 10SM SCT040 OVC050 13/10 A3007 RMK AO2 LTG DSNT NW
K82V 241355Z AUTO 00000KT 10SM SCT041 OVC048 13/10 A3006 RMK AO2 LTG DSNT NW
K82V 241335Z AUTO 25003KT 10SM BKN048 OVC065 13/09 A3005 RMK AO2
K82V 241315Z AUTO 23004KT 10SM SCT050 OVC065 12/09 A3004 RMK AO2
K82V 241255Z AUTO 29003KT 10SM SCT050 BKN065 BKN080 11/10 A3002 RMK AO2
K82V 241235Z AUTO 19003KT 10SM SCT080 10/10 A3001 RMK AO2 LTG DSNT N
K82V 241215Z AUTO 17004KT 10SM CLR 10/08 A3000 RMK AO2 LTG DSNT E
K82V 241155Z AUTO 19003KT 10SM SCT090 10/10 A3000 RMK AO2
K82V 241135Z AUTO 25004KT 10SM SCT100 10/10 A3001 RMK AO2
K82V 241115Z AUTO 21005KT 10SM BKN110 11/10 A3001 RMK AO2 LTG DSNT SE
K82V 241055Z AUTO 30007KT 10SM OVC100 11/10 A3000 RMK AO2 LTG DSNT S
K82V 241035Z AUTO 33005KT 10SM SCT075 OVC090 12/10 A2997 RMK AO2
K82V 241015Z AUTO 11007KT 10SM -RA SCT070 BKN090 OVC120 11/10 A2995 RMK AO2
K82V 240955Z AUTO 00000KT 10SM OVC110 11/10 A2998 RMK AO2
K82V 240935Z AUTO 08004KT 10SM OVC110 11/10 A2996 RMK AO2
K82V 240915Z AUTO 13011KT 10SM BKN100 BKN120 11/10 A2993 RMK AO2
K82V 240855Z AUTO 10005KT 10SM SCT090 SCT110 11/10 A2994 RMK AO2 LTG DSNT SE
K82V 240835Z AUTO 05007KT 10SM SCT060 BKN080 OVC100 11/10 A2997 RMK AO2
K82V 240815Z AUTO 05005KT 10SM BKN090 11/10 A3001 RMK AO2
K82V 240755Z AUTO 35008KT 10SM SCT050 BKN100 11/10 A3002 RMK AO2
K82V 240735Z AUTO 36008KT 10SM SCT037 SCT044 OVC050 12/11 A3005 RMK AO2
K82V 240715Z AUTO 34011KT 10SM SCT039 BKN048 OVC065 12/11 A3008 RMK AO2 LTG DSNT SE
K82V 240655Z AUTO 35015G20KT 10SM -RA SCT047 BKN065 OVC080 12/11 A3005 RMK AO2 LTG DSNT W
K82V 240635Z AUTO 35013G16KT 10SM VCTS SCT070 OVC080 13/11 A3006 RMK AO2 LTG DSNT S AND W
K82V 240615Z AUTO 34005KT 10SM -RA BKN080 OVC095 13/12 A3005 RMK AO2 LTG DSNT S
K82V 240555Z AUTO 00000KT 10SM -RA BKN075 OVC100 13/12 A3004 RMK AO2 LTG DSNT W
K82V 240535Z AUTO 00000KT 10SM SCT075 BKN090 OVC110 13/11 A3003 RMK AO2
K82V 240515Z AUTO 36004KT 10SM BKN110 12/11 A3000 RMK AO2 LTG DSNT E
K82V 240455Z AUTO 04007KT 10SM CLR 12/10 A2998 RMK AO2
K82V 240435Z AUTO 01009KT 10SM SCT039 SCT060 SCT075 12/10 A2998 RMK AO2
K82V 240415Z AUTO 01009KT 10SM RA SCT034 BKN075 OVC100 13/09 A2999 RMK AO2
K82V 240355Z AUTO 27005KT 10SM SCT100 BKN120 15/08 A3000 RMK AO2
K82V 240335Z AUTO 04007KT 10SM SCT120 14/08 A2996 RMK AO2 LTG DSNT E
K82V 240315Z AUTO 02009KT 10SM CLR 14/08 A2994 RMK AO2
K82V 240255Z AUTO 04011KT 10SM CLR 15/07 A2992 RMK AO2
K82V 240235Z AUTO 04010G17KT 10SM CLR 15/07 A2991 RMK AO2
K82V 240215Z AUTO 04012G20KT 10SM CLR 15/07 A2990 RMK AO2 LTG DSNT NE AND E
K82V 240155Z AUTO 02014G22KT 10SM CLR 16/07 A2990 RMK AO2
K82V 240135Z AUTO 01016G26KT 10SM CLR 17/08 A2990 RMK AO2 LTG DSNT NE
K82V 240115Z AUTO 36025G32KT 7SM CLR 18/09 A2989 RMK AO2
K82V 240055Z AUTO 35028G36KT 5SM HZ CLR 20/07 A2988 RMK AO2 LTG DSNT N
K82V 240035Z AUTO 34016G26KT 10SM SCT110 22/04 A2987 RMK AO2 LTG DSNT NE
K82V 240015Z AUTO 00000KT 10SM SCT120 26/02 A2984 RMK AO2
K82V 232355Z AUTO 00000KT 10SM CLR 26/01 A2983 RMK AO2